Time,TemperatureF,DewpointF,PressureIn,WindDirection,WindDirectionDegrees,WindSpeedMPH,WindSpeedGustMPH,Humidity,HourlyPrecipIn,Conditions,Clouds,dailyrainin,SoftwareType,DateUTC
2013-08-10 00:28:00,66.3,51.1,30.07,NW,322,3.0,3.0,58,0.00,,,0.00,Wunderground v.1.15,2013-08-10 05:28:00,
2013-08-10 00:58:00,65.8,50.6,30.07,NW,321,3.0,3.0,58,0.00,,,0.00,Wunderground v.1.15,2013-08-10 05:58:00,
2013-08-10 01:28:00,65.5,51.2,30.07,NW,319,2.0,2.0,60,0.00,,,0.00,Wunderground v.1.15,2013-08-10 06:28:00,
2013-08-10 01:58:00,65.0,51.2,30.08,West,281,2.0,3.0,61,0.00,,,0.00,Wunderground v.1.15,2013-08-10 06:58:00,
2013-08-10 02:28:00,64.7,51.4,30.08,West,278,2.0,3.0,62,0.00,,,0.00,Wunderground v.1.15,2013-08-10 07:28:00,
2013-08-10 02:58:00,64.0,52.4,30.08,West,263,2.0,2.0,66,0.00,,,0.00,Wunderground v.1.15,2013-08-10 07:58:00,
2013-08-10 03:28:00,63.5,51.9,30.10,West,265,2.0,2.0,66,0.00,,,0.00,Wunderground v.1.15,2013-08-10 08:28:00,
2013-08-10 03:58:00,63.2,51.6,30.10,West,265,2.0,2.0,66,0.00,,,0.00,Wunderground v.1.15,2013-08-10 08:58:00,
2013-08-10 04:28:00,63.1,52.4,30.10,West,265,1.0,1.0,68,0.00,,,0.00,Wunderground v.1.15,2013-08-10 09:28:00,
2013-08-10 04:58:00,63.1,52.8,30.11,West,267,3.0,5.0,69,0.00,,,0.00,Wunderground v.1.15,2013-08-10 09:58:00,
2013-08-10 05:28:00,62.6,52.7,30.11,West,265,1.0,1.0,70,0.00,,,0.00,Wunderground v.1.15,2013-08-10 10:28:00,
2013-08-10 05:58:00,62.3,52.8,30.11,West,265,2.0,2.0,71,0.00,,,0.00,Wunderground v.1.15,2013-08-10 10:58:00,
2013-08-10 06:28:00,62.3,52.8,30.11,WNW,286,4.0,4.0,71,0.00,,,0.00,Wunderground v.1.15,2013-08-10 11:28:00,
2013-08-10 06:58:00,61.8,52.7,30.12,West,279,4.0,4.0,72,0.00,,,0.00,Wunderground v.1.15,2013-08-10 11:58:00,
2013-08-10 07:28:00,62.0,53.2,30.13,West,273,2.0,3.0,73,0.00,,,0.00,Wunderground v.1.15,2013-08-10 12:28:00,
2013-08-10 07:58:00,62.3,53.2,30.12,WNW,300,4.0,4.0,72,0.00,,,0.00,Wunderground v.1.15,2013-08-10 12:58:00,
2013-08-10 08:28:00,63.1,53.5,30.12,West,279,3.0,4.0,71,0.00,,,0.00,Wunderground v.1.15,2013-08-10 13:28:00,
2013-08-10 08:58:00,63.7,53.3,30.12,WNW,284,4.0,4.0,69,0.00,,,0.00,Wunderground v.1.15,2013-08-10 13:58:00,
2013-08-10 09:28:00,65.0,53.4,30.12,WNW,294,2.0,4.0,66,0.00,,,0.00,Wunderground v.1.15,2013-08-10 14:28:00,
2013-08-10 09:58:00,65.8,52.4,30.13,WSW,241,3.0,5.0,62,0.00,,,0.00,Wunderground v.1.15,2013-08-10 14:58:00,
2013-08-10 10:28:00,66.6,51.8,30.13,West,277,4.0,4.0,59,0.00,,,0.00,Wunderground v.1.15,2013-08-10 15:28:00,
2013-08-10 10:58:00,67.6,50.9,30.13,West,269,7.0,9.0,55,0.00,,,0.00,Wunderground v.1.15,2013-08-10 15:58:00,
2013-08-10 11:28:00,68.6,50.3,30.13,NNW,328,6.0,6.0,52,0.00,,,0.00,Wunderground v.1.15,2013-08-10 16:28:00,
2013-08-10 11:58:00,69.4,51.0,30.13,WNW,284,4.0,6.0,52,0.00,,,0.00,Wunderground v.1.15,2013-08-10 16:58:00,
2013-08-10 12:28:00,69.9,48.7,30.13,NW,311,5.0,5.0,47,0.00,,,0.00,Wunderground v.1.15,2013-08-10 17:28:00,
2013-08-10 12:58:00,70.4,50.3,30.12,NW,322,3.0,4.0,49,0.00,,,0.00,Wunderground v.1.15,2013-08-10 17:58:00,
2013-08-10 13:28:00,70.6,47.6,30.12,WSW,251,3.0,4.0,44,0.00,,,0.00,Wunderground v.1.15,2013-08-10 18:28:00,
2013-08-10 13:58:00,70.3,50.8,30.13,West,271,5.0,5.0,50,0.00,,,0.00,Wunderground v.1.15,2013-08-10 18:58:00,
2013-08-10 14:28:00,70.8,50.1,30.12,West,271,2.0,4.0,48,0.00,,,0.00,Wunderground v.1.15,2013-08-10 19:28:00,
2013-08-10 14:58:00,71.3,46.4,30.11,West,259,5.0,6.0,41,0.00,,,0.00,Wunderground v.1.15,2013-08-10 19:58:00,
2013-08-10 15:28:00,71.1,48.1,30.11,NW,308,3.0,5.0,44,0.00,,,0.00,Wunderground v.1.15,2013-08-10 20:28:00,
2013-08-10 15:58:00,71.6,47.9,30.10,WNW,291,4.0,4.0,43,0.00,,,0.00,Wunderground v.1.15,2013-08-10 20:58:00,
2013-08-10 16:28:00,72.0,49.5,30.10,West,275,3.0,3.0,45,0.00,,,0.00,Wunderground v.1.15,2013-08-10 21:28:00,
2013-08-10 16:58:00,71.8,50.5,30.09,WNW,294,3.0,3.0,47,0.00,,,0.00,Wunderground v.1.15,2013-08-10 21:58:00,
2013-08-10 17:28:00,72.1,49.6,30.08,WNW,300,3.0,3.0,45,0.00,,,0.00,Wunderground v.1.15,2013-08-10 22:28:00,
2013-08-10 17:58:00,72.8,49.0,30.08,WNW,284,3.0,3.0,43,0.00,,,0.00,Wunderground v.1.15,2013-08-10 22:58:00,
2013-08-10 18:28:00,72.3,49.2,30.08,WNW,287,6.0,6.0,44,0.00,,,0.00,Wunderground v.1.15,2013-08-10 23:28:00,
2013-08-10 18:58:00,72.1,49.6,30.07,WNW,296,6.0,6.0,45,0.00,,,0.00,Wunderground v.1.15,2013-08-10 23:58:00,
2013-08-10 19:28:00,72.0,51.2,30.07,WNW,294,3.0,3.0,48,0.00,,,0.00,Wunderground v.1.15,2013-08-11 00:28:00,
2013-08-10 19:58:00,70.8,51.2,30.07,WNW,288,3.0,4.0,50,0.00,,,0.00,Wunderground v.1.15,2013-08-11 00:58:00,
2013-08-10 20:28:00,69.4,52.0,30.07,WNW,284,3.0,3.0,54,0.00,,,0.00,Wunderground v.1.15,2013-08-11 01:28:00,
2013-08-10 20:58:00,68.6,52.8,30.07,WNW,284,0.0,0.0,57,0.00,,,0.00,Wunderground v.1.15,2013-08-11 01:58:00,
2013-08-10 21:28:00,67.1,52.7,30.07,WNW,284,0.0,0.0,60,0.00,,,0.00,Wunderground v.1.15,2013-08-11 02:28:00,
2013-08-10 21:58:00,64.5,53.7,30.07,WNW,283,0.0,0.0,68,0.00,,,0.00,Wunderground v.1.15,2013-08-11 02:58:00,
2013-08-10 22:28:00,63.1,55.0,30.07,WNW,283,0.0,0.0,75,0.00,,,0.00,Wunderground v.1.15,2013-08-11 03:28:00,
2013-08-10 22:58:00,62.0,55.1,30.06,WNW,283,0.0,0.0,78,0.00,,,0.00,Wunderground v.1.15,2013-08-11 03:58:00,
2013-08-10 23:28:00,62.0,55.1,30.07,WNW,284,0.0,0.0,78,0.00,,,0.00,Wunderground v.1.15,2013-08-11 04:28:00,
2013-08-10 23:58:00,61.2,55.3,30.07,WNW,283,0.0,0.0,81,0.00,,,0.00,Wunderground v.1.15,2013-08-11 04:58:00,